createdAt,value
2023-02-26T00:00:49.498Z,69.29
2023-02-26T00:01:49.621Z,72.64
2023-02-26T00:02:49.424Z,69.07
2023-02-26T00:03:49.381Z,71.38
2023-02-26T00:04:49.392Z,70.86
2023-02-26T00:05:49.434Z,71.80
2023-02-26T00:06:49.333Z,69.29
2023-02-26T00:07:49.324Z,70.86
2023-02-26T00:08:49.366Z,69.07
2023-02-26T00:09:49.321Z,70.96
2023-02-26T00:10:49.232Z,69.07
2023-02-26T00:11:49.272Z,70.33
2023-02-26T00:12:49.235Z,69.49
2023-02-26T00:13:49.360Z,70.33
2023-02-26T00:14:49.286Z,74.62
2023-02-26T00:15:49.258Z,70.12
2023-02-26T00:16:49.184Z,69.49
2023-02-26T00:17:49.336Z,69.29
2023-02-26T00:18:49.229Z,74.41
2023-02-26T00:19:49.205Z,74.84
2023-02-26T00:20:49.288Z,69.92
2023-02-26T00:21:49.209Z,70.12
2023-02-26T00:22:49.193Z,69.39
2023-02-26T00:23:49.110Z,69.07
2023-02-26T00:24:49.207Z,70.65
2023-02-26T00:25:49.138Z,71.28
2023-02-26T00:26:49.074Z,71.90
2023-02-26T00:27:49.181Z,75.25
2023-02-26T00:28:49.058Z,71.80
2023-02-26T00:29:49.067Z,76.51
2023-02-26T00:30:49.160Z,73.26
2023-02-26T00:31:49.218Z,70.43
2023-02-26T00:32:49.069Z,71.80
2023-02-26T00:33:49.056Z,72.74
2023-02-26T00:34:49.063Z,72.11
2023-02-26T00:35:49.027Z,70.99
2023-02-26T00:36:48.979Z,69.95
2023-02-26T00:37:49.117Z,72.46
2023-02-26T00:38:48.998Z,75.49
2023-02-26T00:39:49.033Z,72.46
2023-02-26T00:40:49.010Z,71.31
2023-02-26T00:41:49.017Z,72.35
2023-02-26T00:42:48.938Z,74.34
2023-02-26T00:43:49.001Z,73.72
2023-02-26T00:44:48.946Z,72.04
2023-02-26T00:45:48.973Z,75.81
2023-02-26T00:46:48.989Z,74.97
2023-02-26T00:47:48.915Z,76.23
2023-02-26T00:48:48.890Z,77.69
2023-02-26T00:49:48.909Z,71.31
2023-02-26T00:50:48.858Z,69.95
2023-02-26T00:51:48.924Z,71.20
2023-02-26T00:52:48.881Z,70.57
2023-02-26T00:53:48.884Z,70.47
2023-02-26T00:54:48.820Z,71.73
2023-02-26T00:55:48.826Z,72.67
2023-02-26T00:56:48.800Z,76.86
2023-02-26T00:57:48.765Z,80.07
2023-02-26T00:58:48.803Z,76.61
2023-02-26T00:59:48.756Z,72.32
2023-02-26T01:00:48.810Z,74.10
2023-02-26T01:01:48.847Z,79.13
2023-02-26T01:02:48.769Z,79.23
2023-02-26T01:03:48.772Z,78.50
2023-02-26T01:04:48.709Z,73.26
2023-02-26T01:05:48.725Z,74.21
2023-02-26T01:06:48.724Z,72.22
2023-02-26T01:07:48.708Z,72.42
2023-02-26T01:08:48.688Z,72.53
2023-02-26T01:09:48.691Z,72.22
2023-02-26T01:10:48.614Z,72.64
2023-02-26T01:11:48.681Z,72.22
2023-02-26T01:12:48.650Z,74.31
2023-02-26T01:13:48.626Z,75.25
2023-02-26T01:14:48.638Z,74.80
2023-02-26T01:15:48.697Z,73.68
2023-02-26T01:16:48.638Z,74.90
2023-02-26T01:17:48.643Z,77.73
2023-02-26T01:18:48.717Z,75.53
2023-02-26T01:19:48.576Z,70.93
2023-02-26T01:20:48.722Z,70.51
2023-02-26T01:21:48.582Z,72.81
2023-02-26T01:22:48.557Z,70.40
2023-02-26T01:23:48.608Z,71.45
2023-02-26T01:24:48.519Z,72.92
2023-02-26T01:25:48.599Z,74.59
2023-02-26T01:26:48.510Z,75.84
2023-02-26T01:27:48.542Z,77.83
2023-02-26T01:28:48.488Z,76.16
2023-02-26T01:29:48.458Z,71.87
2023-02-26T01:30:48.520Z,70.20
2023-02-26T01:31:48.639Z,76.16
2023-02-26T01:32:48.553Z,70.61
2023-02-26T01:33:48.435Z,71.66
2023-02-26T01:34:48.456Z,74.27
2023-02-26T01:35:48.396Z,75.01
2023-02-26T01:36:48.361Z,76.68
2023-02-26T01:37:48.395Z,71.45
2023-02-26T01:38:48.369Z,74.49
2023-02-26T01:39:48.394Z,75.74
2023-02-26T01:40:48.397Z,76.37
2023-02-26T01:41:48.398Z,77.62
2023-02-26T01:42:48.339Z,77.31
2023-02-26T01:43:48.283Z,75.22
2023-02-26T01:44:48.350Z,73.02
2023-02-26T01:45:48.299Z,75.11
2023-02-26T01:46:48.467Z,78.25
2023-02-26T01:47:48.318Z,77.52
2023-02-26T01:48:48.283Z,73.02
2023-02-26T01:49:48.279Z,74.69
2023-02-26T01:50:48.232Z,72.19
2023-02-26T01:51:48.320Z,74.84
2023-02-26T01:52:48.266Z,73.37
2023-02-26T01:53:48.261Z,72.53
2023-02-26T01:54:48.207Z,75.04
2023-02-26T01:55:48.198Z,73.89
2023-02-26T01:56:48.286Z,73.68
2023-02-26T01:57:48.304Z,72.77
2023-02-26T01:58:48.291Z,74.03
2023-02-26T01:59:48.243Z,73.61
2023-02-26T02:00:48.150Z,76.86
2023-02-26T02:01:48.155Z,76.75
2023-02-26T02:02:48.292Z,78.01
2023-02-26T02:03:48.144Z,75.49
2023-02-26T02:04:48.105Z,77.91
2023-02-26T02:05:48.234Z,80.10
2023-02-26T02:06:48.156Z,78.08
2023-02-26T02:07:48.078Z,78.11
2023-02-26T02:08:48.052Z,78.43
2023-02-26T02:09:48.076Z,79.37
2023-02-26T02:10:48.057Z,81.01
2023-02-26T02:11:48.068Z,79.86
2023-02-26T02:12:48.078Z,79.75
2023-02-26T02:13:48.125Z,77.45
2023-02-26T02:14:48.030Z,79.23
2023-02-26T02:15:48.038Z,79.54
2023-02-26T02:16:48.032Z,79.33
2023-02-26T02:17:47.958Z,79.23
2023-02-26T02:18:47.992Z,80.69
2023-02-26T02:19:47.981Z,82.06
2023-02-26T02:20:47.979Z,82.58
2023-02-26T02:21:47.899Z,82.06
2023-02-26T02:22:47.962Z,82.79
2023-02-26T02:23:47.940Z,83.10
2023-02-26T02:24:47.955Z,83.52
2023-02-26T02:25:47.849Z,82.62
2023-02-26T02:26:47.970Z,83.35
2023-02-26T02:27:47.861Z,83.45
2023-02-26T02:28:47.842Z,82.93
2023-02-26T02:29:47.966Z,83.14
2023-02-26T02:30:47.906Z,83.45
2023-02-26T02:31:48.090Z,83.66
2023-02-26T02:32:47.987Z,84.50
2023-02-26T02:33:47.795Z,82.72
2023-02-26T02:34:47.817Z,83.25
2023-02-26T02:35:47.826Z,85.24
2023-02-26T02:36:47.846Z,83.25
2023-02-26T02:37:47.838Z,85.02
2023-02-26T02:38:47.725Z,85.65
2023-02-26T02:39:47.740Z,84.08
2023-02-26T02:40:47.744Z,84.29
2023-02-26T02:41:47.706Z,83.25
2023-02-26T02:42:47.745Z,84.33
2023-02-26T02:43:47.750Z,84.64
2023-02-26T02:44:47.719Z,85.38
2023-02-26T02:45:47.742Z,85.06
2023-02-26T02:46:47.715Z,85.90
2023-02-26T02:47:47.654Z,84.64
2023-02-26T02:48:47.688Z,84.54
2023-02-26T02:49:47.679Z,84.64
2023-02-26T02:50:47.617Z,84.44
2023-02-26T02:51:47.721Z,82.55
2023-02-26T02:52:47.652Z,82.59
2023-02-26T02:53:47.599Z,82.59
2023-02-26T02:54:47.572Z,84.58
2023-02-26T02:55:47.575Z,85.83
2023-02-26T02:56:47.556Z,85.31
2023-02-26T02:57:47.560Z,83.84
2023-02-26T02:58:47.576Z,83.01
2023-02-26T02:59:47.571Z,85.31
2023-02-26T03:00:47.605Z,84.89
2023-02-26T03:01:47.570Z,84.58
2023-02-26T03:02:47.527Z,83.42
2023-02-26T03:03:47.527Z,83.95
2023-02-26T03:04:47.483Z,87.20
2023-02-26T03:05:47.493Z,87.20
2023-02-26T03:06:47.489Z,85.21
2023-02-26T03:07:47.421Z,84.68
2023-02-26T03:08:47.494Z,84.93
2023-02-26T03:09:47.467Z,84.41
2023-02-26T03:10:47.461Z,85.14
2023-02-26T03:11:47.432Z,85.14
2023-02-26T03:12:47.434Z,84.09
2023-02-26T03:13:47.410Z,83.57
2023-02-26T03:14:47.369Z,85.25
2023-02-26T03:15:47.391Z,85.88
2023-02-26T03:16:47.404Z,86.08
2023-02-26T03:17:47.356Z,84.30
2023-02-26T03:18:47.354Z,84.83
2023-02-26T03:19:47.293Z,84.20
2023-02-26T03:20:47.299Z,82.62
2023-02-26T03:21:47.287Z,84.72
2023-02-26T03:22:47.307Z,86.29
2023-02-26T03:23:47.323Z,87.55
2023-02-26T03:24:47.390Z,87.45
2023-02-26T03:25:47.235Z,87.45
2023-02-26T03:26:47.249Z,85.66
2023-02-26T03:27:47.247Z,87.97
2023-02-26T03:28:47.226Z,87.87
2023-02-26T03:29:47.277Z,86.61
2023-02-26T03:30:47.262Z,86.82
2023-02-26T03:31:47.321Z,86.29
2023-02-26T03:32:47.236Z,86.71
2023-02-26T03:33:47.201Z,86.71
2023-02-26T03:34:47.155Z,87.45
2023-02-26T03:35:47.223Z,86.51
2023-02-26T03:36:47.187Z,85.49
2023-02-26T03:37:47.128Z,86.44
2023-02-26T03:38:47.114Z,86.65
2023-02-26T03:39:47.104Z,85.39
2023-02-26T03:40:47.085Z,85.08
2023-02-26T03:41:47.221Z,85.71
2023-02-26T03:42:47.098Z,86.02
2023-02-26T03:43:47.081Z,86.23
2023-02-26T03:44:47.075Z,86.58
2023-02-26T03:45:47.088Z,85.95
2023-02-26T03:46:47.093Z,87.80
2023-02-26T03:47:47.082Z,86.65
2023-02-26T03:48:47.084Z,88.22
2023-02-26T03:49:46.992Z,88.22
2023-02-26T03:50:47.002Z,86.44
2023-02-26T03:51:46.968Z,84.55
2023-02-26T03:52:46.963Z,84.80
2023-02-26T03:53:46.982Z,85.32
2023-02-26T03:54:47.120Z,85.11
2023-02-26T03:55:47.018Z,85.95
2023-02-26T03:56:47.012Z,85.95
2023-02-26T03:57:46.917Z,84.69
2023-02-26T03:58:46.925Z,85.01
2023-02-26T03:59:46.897Z,85.32
2023-02-26T04:00:46.923Z,85.74
2023-02-26T04:01:46.951Z,85.95
2023-02-26T04:02:46.948Z,84.59
2023-02-26T04:03:46.901Z,85.74
2023-02-26T04:04:46.882Z,86.06
2023-02-26T04:05:46.842Z,87.63
2023-02-26T04:06:46.895Z,86.16
2023-02-26T04:07:46.867Z,85.22
2023-02-26T04:08:46.885Z,87.00
2023-02-26T04:09:46.814Z,87.84
2023-02-26T04:10:46.789Z,87.52
2023-02-26T04:11:46.787Z,86.47
2023-02-26T04:12:46.802Z,84.80
2023-02-26T04:13:46.828Z,87.21
2023-02-26T04:14:46.768Z,85.64
2023-02-26T04:15:46.772Z,85.22
2023-02-26T04:16:46.830Z,85.53
2023-02-26T04:17:46.752Z,86.37
2023-02-26T04:18:46.724Z,86.90
2023-02-26T04:19:46.681Z,85.85
2023-02-26T04:20:46.705Z,87.21
2023-02-26T04:21:46.671Z,86.16
2023-02-26T04:22:46.702Z,87.42
2023-02-26T04:23:46.720Z,88.68
2023-02-26T04:24:46.793Z,87.00
2023-02-26T04:25:46.640Z,85.85
2023-02-26T04:26:46.630Z,85.47
2023-02-26T04:27:46.624Z,87.11
2023-02-26T04:28:46.652Z,85.89
2023-02-26T04:29:46.613Z,87.88
2023-02-26T04:30:46.752Z,88.05
2023-02-26T04:31:46.755Z,87.95
2023-02-26T04:32:46.598Z,87.52
2023-02-26T04:33:46.569Z,87.46
2023-02-26T04:34:46.560Z,85.89
2023-02-26T04:35:46.624Z,86.41
2023-02-26T04:36:46.557Z,87.36
2023-02-26T04:37:46.490Z,85.99
2023-02-26T04:38:46.654Z,87.15
2023-02-26T04:39:46.499Z,85.99
2023-02-26T04:40:46.489Z,86.52
2023-02-26T04:41:46.507Z,87.25
2023-02-26T04:42:47.544Z,87.15
2023-02-26T04:43:46.484Z,85.47
2023-02-26T04:44:46.487Z,85.99
2023-02-26T04:45:46.423Z,87.77
2023-02-26T04:46:46.490Z,88.93
2023-02-26T04:47:46.434Z,88.20
2023-02-26T04:48:46.414Z,86.72
2023-02-26T04:49:46.440Z,87.99
2023-02-26T04:50:46.380Z,87.77
2023-02-26T04:51:46.429Z,86.30
2023-02-26T04:52:46.370Z,86.41
2023-02-26T04:53:46.369Z,86.83
2023-02-26T04:54:46.332Z,86.62
2023-02-26T04:55:46.359Z,86.30
2023-02-26T04:56:46.339Z,86.83
2023-02-26T04:57:46.312Z,86.52
2023-02-26T04:58:46.343Z,86.72
2023-02-26T04:59:46.271Z,87.04
2023-02-26T05:00:46.275Z,86.94
2023-02-26T05:01:46.302Z,85.89
2023-02-26T05:02:46.257Z,86.83
2023-02-26T05:03:46.238Z,86.72
2023-02-26T05:04:46.403Z,86.20
2023-02-26T05:05:46.214Z,85.89
2023-02-26T05:06:46.224Z,85.47
2023-02-26T05:07:46.205Z,86.41
2023-02-26T05:08:46.236Z,87.99
2023-02-26T05:09:46.243Z,86.10
2023-02-26T05:10:46.168Z,84.63
2023-02-26T05:11:46.173Z,85.05
2023-02-26T05:12:46.175Z,84.94
2023-02-26T05:13:46.125Z,83.89
2023-02-26T05:14:46.148Z,86.72
2023-02-26T05:15:46.185Z,84.94
2023-02-26T05:16:46.175Z,85.89
2023-02-26T05:17:46.196Z,85.68
2023-02-26T05:18:46.088Z,86.10
2023-02-26T05:19:46.137Z,86.30
2023-02-26T05:20:46.089Z,86.30
2023-02-26T05:21:46.333Z,84.84
2023-02-26T05:22:46.223Z,84.63
2023-02-26T05:23:46.040Z,85.36
2023-02-26T05:24:46.024Z,85.25
2023-02-26T05:25:46.028Z,84.63
2023-02-26T05:26:46.040Z,84.94
2023-02-26T05:27:46.056Z,84.31
2023-02-26T05:28:46.036Z,86.30
2023-02-26T05:29:46.016Z,85.36
2023-02-26T05:30:45.984Z,84.10
2023-02-26T05:31:46.102Z,86.20
2023-02-26T05:32:45.981Z,86.30
2023-02-26T05:33:45.946Z,85.05
2023-02-26T05:34:46.008Z,84.94
2023-02-26T05:35:45.929Z,84.94
2023-02-26T05:36:45.976Z,83.58
2023-02-26T05:37:45.899Z,83.72
2023-02-26T05:38:45.911Z,83.61
2023-02-26T05:39:45.837Z,83.40
2023-02-26T05:40:45.874Z,85.40
2023-02-26T05:41:45.816Z,85.50
2023-02-26T05:42:45.970Z,85.89
2023-02-26T05:43:45.844Z,83.68
2023-02-26T05:44:45.834Z,83.40
2023-02-26T05:45:45.781Z,85.68
2023-02-26T05:46:45.772Z,84.73
2023-02-26T05:47:45.888Z,85.15
2023-02-26T05:48:46.033Z,86.20
2023-02-26T05:49:45.732Z,83.68
2023-02-26T05:50:45.799Z,84.20
2023-02-26T05:51:45.715Z,84.73
2023-02-26T05:52:45.697Z,84.52
2023-02-26T05:53:45.709Z,84.42
2023-02-26T05:54:45.687Z,83.26
2023-02-26T05:55:45.744Z,84.42
2023-02-26T05:56:45.676Z,83.89
2023-02-26T05:57:45.712Z,85.15
2023-02-26T05:58:45.634Z,86.30
2023-02-26T05:59:45.627Z,83.89
2023-02-26T06:00:45.624Z,82.10
2023-02-26T06:01:45.698Z,84.10
2023-02-26T06:02:45.675Z,84.20
2023-02-26T06:03:45.581Z,84.10
2023-02-26T06:04:45.602Z,83.15
2023-02-26T06:05:45.564Z,81.90
2023-02-26T06:06:45.597Z,83.75
2023-02-26T06:07:47.463Z,84.91
2023-02-26T06:08:45.573Z,84.69
2023-02-26T06:09:45.544Z,84.69
2023-02-26T06:10:45.545Z,85.42
2023-02-26T06:11:45.495Z,82.59
2023-02-26T06:12:45.499Z,83.44
2023-02-26T06:13:45.500Z,84.17
2023-02-26T06:14:45.521Z,84.69
2023-02-26T06:15:45.453Z,83.64
2023-02-26T06:16:45.564Z,83.44
2023-02-26T06:17:45.463Z,82.17
2023-02-26T06:18:45.452Z,83.01
2023-02-26T06:19:45.455Z,83.44
2023-02-26T06:20:45.450Z,83.96
2023-02-26T06:21:45.450Z,84.38
2023-02-26T06:22:45.397Z,84.27
2023-02-26T06:23:45.369Z,83.33
2023-02-26T06:24:45.379Z,83.64
2023-02-26T06:25:45.384Z,83.12
2023-02-26T06:26:45.386Z,83.96
2023-02-26T06:27:45.365Z,82.81
2023-02-26T06:28:45.339Z,82.32
2023-02-26T06:29:45.348Z,84.48
2023-02-26T06:30:45.331Z,83.96
2023-02-26T06:31:45.498Z,83.54
2023-02-26T06:32:45.370Z,84.48
2023-02-26T06:33:45.298Z,83.22
2023-02-26T06:34:45.299Z,83.12
2023-02-26T06:35:45.272Z,82.49
2023-02-26T06:36:45.320Z,82.91
2023-02-26T06:37:45.258Z,82.49
2023-02-26T06:38:45.274Z,83.22
2023-02-26T06:39:45.231Z,83.54
2023-02-26T06:40:45.237Z,83.01
2023-02-26T06:41:45.215Z,82.91
2023-02-26T06:42:45.190Z,82.39
2023-02-26T06:43:45.229Z,82.49
2023-02-26T06:44:45.230Z,83.33
2023-02-26T06:45:45.221Z,83.54
2023-02-26T06:46:45.202Z,84.38
2023-02-26T06:47:45.168Z,83.86
2023-02-26T06:48:45.156Z,84.27
2023-02-26T06:49:45.185Z,83.54
2023-02-26T06:50:45.164Z,83.12
2023-02-26T06:51:45.176Z,82.70
2023-02-26T06:52:45.100Z,82.28
2023-02-26T06:53:45.086Z,82.28
2023-02-26T06:54:45.093Z,83.44
2023-02-26T06:55:45.210Z,82.49
2023-02-26T06:56:45.128Z,83.01
2023-02-26T06:57:45.113Z,82.70
2023-02-26T06:58:45.039Z,82.70
2023-02-26T06:59:45.060Z,84.38
2023-02-26T07:00:45.072Z,83.64
2023-02-26T07:01:45.023Z,83.01
2023-02-26T07:02:45.023Z,82.17
2023-02-26T07:03:44.992Z,83.33
2023-02-26T07:04:45.013Z,83.44
2023-02-26T07:05:44.963Z,82.81
2023-02-26T07:06:44.941Z,84.03
2023-02-26T07:07:44.975Z,83.40
2023-02-26T07:08:45.014Z,82.03
2023-02-26T07:09:46.048Z,82.56
2023-02-26T07:10:44.925Z,81.30
2023-02-26T07:11:44.915Z,81.72
2023-02-26T07:12:44.916Z,82.66
2023-02-26T07:13:44.888Z,82.35
2023-02-26T07:14:44.894Z,82.03
2023-02-26T07:15:46.341Z,81.40
2023-02-26T07:16:44.931Z,81.51
2023-02-26T07:17:44.855Z,81.26
2023-02-26T07:18:44.853Z,81.51
2023-02-26T07:19:44.865Z,81.05
2023-02-26T07:20:44.818Z,81.79
2023-02-26T07:21:44.852Z,81.05
2023-02-26T07:22:44.821Z,80.94
2023-02-26T07:23:44.840Z,80.74
2023-02-26T07:24:44.790Z,80.42
2023-02-26T07:25:44.782Z,81.68
2023-02-26T07:26:44.765Z,80.74
2023-02-26T07:27:44.803Z,81.26
2023-02-26T07:28:44.750Z,81.05
2023-02-26T07:29:44.736Z,80.53
2023-02-26T07:30:44.872Z,81.99
2023-02-26T07:31:44.770Z,80.74
2023-02-26T07:32:44.718Z,79.86
2023-02-26T07:33:44.695Z,79.97
2023-02-26T07:34:44.667Z,79.23
2023-02-26T07:35:44.686Z,79.75
2023-02-26T07:36:44.749Z,79.13
2023-02-26T07:37:44.637Z,80.07
2023-02-26T07:38:44.635Z,79.65
2023-02-26T07:39:44.620Z,80.07
2023-02-26T07:40:44.624Z,78.36
2023-02-26T07:41:44.714Z,77.83
2023-02-26T07:42:44.600Z,78.67
2023-02-26T07:43:44.593Z,77.52
2023-02-26T07:44:44.625Z,78.15
2023-02-26T07:45:44.649Z,77.10
2023-02-26T07:46:44.580Z,75.63
2023-02-26T07:47:44.554Z,77.48
2023-02-26T07:48:44.544Z,78.64
2023-02-26T07:49:44.566Z,78.85
2023-02-26T07:50:44.581Z,77.55
2023-02-26T07:51:44.492Z,76.93
2023-02-26T07:52:44.507Z,77.10
2023-02-26T07:53:44.615Z,75.63
2023-02-26T07:54:44.588Z,76.02
2023-02-26T07:55:44.511Z,74.10
2023-02-26T07:56:44.428Z,74.84
2023-02-26T07:57:44.440Z,75.85
2023-02-26T07:58:44.435Z,73.55
2023-02-26T07:59:44.422Z,72.99
2023-02-26T08:00:44.418Z,71.74
2023-02-26T08:01:44.426Z,71.39
2023-02-26T08:02:44.396Z,71.19
2023-02-26T08:03:44.434Z,70.73
2023-02-26T08:04:44.419Z,70.11
2023-02-26T08:05:44.367Z,69.59
2023-02-26T08:06:44.384Z,68.65
2023-02-26T08:07:44.385Z,69.17
2023-02-26T08:08:44.313Z,67.60
2023-02-26T08:09:44.319Z,69.07
2023-02-26T08:10:44.299Z,67.81
2023-02-26T08:11:44.292Z,68.93
2023-02-26T08:12:44.290Z,67.88
2023-02-26T08:13:44.300Z,67.65
2023-02-26T08:14:44.243Z,67.44
2023-02-26T08:15:44.341Z,67.85
2023-02-26T08:16:44.237Z,66.50
2023-02-26T08:17:44.245Z,67.30
2023-02-26T08:18:44.253Z,66.26
2023-02-26T08:19:44.230Z,65.11
2023-02-26T08:20:44.178Z,65.11
2023-02-26T08:21:44.214Z,65.19
2023-02-26T08:22:44.200Z,64.98
2023-02-26T08:23:44.185Z,63.94
2023-02-26T08:24:44.144Z,65.19
2023-02-26T08:25:44.136Z,63.73
2023-02-26T08:26:44.120Z,64.75
2023-02-26T08:27:44.129Z,64.22
2023-02-26T08:28:44.155Z,64.29
2023-02-26T08:29:44.111Z,63.05
2023-02-26T08:30:44.158Z,62.53
2023-02-26T08:31:44.284Z,63.36
2023-02-26T08:32:44.073Z,63.15
2023-02-26T08:33:44.062Z,62.19
2023-02-26T08:34:44.050Z,63.12
2023-02-26T08:35:44.053Z,62.29
2023-02-26T08:36:44.022Z,61.64
2023-02-26T08:37:44.014Z,61.54
2023-02-26T08:38:43.988Z,61.67
2023-02-26T08:39:43.993Z,61.64
2023-02-26T08:40:43.980Z,60.71
2023-02-26T08:41:43.997Z,60.19
2023-02-26T08:42:44.006Z,61.51
2023-02-26T08:43:44.008Z,60.68
2023-02-26T08:44:44.027Z,60.99
2023-02-26T08:45:43.932Z,59.84
2023-02-26T08:46:43.999Z,59.90
2023-02-26T08:47:55.748Z,61.15
2023-02-26T08:48:43.899Z,61.46
2023-02-26T08:49:43.881Z,61.80
2023-02-26T08:50:43.867Z,62.01
2023-02-26T08:51:43.855Z,61.67
2023-02-26T08:52:43.861Z,61.15
2023-02-26T08:53:43.877Z,61.33
2023-02-26T08:54:43.838Z,60.08
2023-02-26T08:55:43.874Z,61.19
2023-02-26T08:56:43.893Z,59.74
2023-02-26T08:57:43.936Z,59.92
2023-02-26T08:58:43.799Z,59.61
2023-02-26T08:59:43.801Z,58.34
2023-02-26T09:00:43.771Z,59.48
2023-02-26T09:01:43.802Z,59.04
2023-02-26T09:02:43.876Z,57.87
2023-02-26T09:03:44.118Z,59.74
2023-02-26T09:04:43.853Z,57.32
2023-02-26T09:05:43.713Z,56.49
2023-02-26T09:06:43.752Z,56.78
2023-02-26T09:07:43.739Z,55.77
2023-02-26T09:08:43.845Z,55.87
2023-02-26T09:09:44.044Z,57.43
2023-02-26T09:10:43.778Z,56.91
2023-02-26T09:11:43.680Z,55.98
2023-02-26T09:12:43.635Z,56.68
2023-02-26T09:13:43.647Z,56.68
2023-02-26T09:14:43.614Z,56.54
2023-02-26T09:15:43.616Z,54.58
2023-02-26T09:16:44.033Z,55.10
2023-02-26T09:17:43.607Z,55.69
2023-02-26T09:18:43.592Z,55.59
2023-02-26T09:19:43.588Z,55.20
2023-02-26T09:20:43.811Z,56.37
2023-02-26T09:21:43.696Z,55.85
2023-02-26T09:22:43.604Z,55.33
2023-02-26T09:23:43.556Z,55.33
2023-02-26T09:24:43.772Z,56.44
2023-02-26T09:25:43.515Z,55.28
2023-02-26T09:26:43.635Z,55.35
2023-02-26T09:27:43.514Z,53.57
2023-02-26T09:28:43.858Z,54.99
2023-02-26T09:29:43.522Z,52.75
2023-02-26T09:30:43.645Z,53.47
2023-02-26T09:31:43.768Z,54.17
2023-02-26T09:32:43.532Z,53.21
2023-02-26T09:33:43.480Z,52.59
2023-02-26T09:34:43.528Z,53.13
2023-02-26T09:35:43.433Z,52.72
2023-02-26T09:36:43.379Z,52.39
2023-02-26T09:37:43.372Z,52.26
2023-02-26T09:38:43.346Z,51.33
2023-02-26T09:39:43.363Z,51.64
2023-02-26T09:40:43.339Z,51.23
2023-02-26T09:41:43.361Z,51.43
2023-02-26T09:42:43.327Z,52.18
2023-02-26T09:43:43.328Z,53.96
2023-02-26T09:44:43.345Z,53.78
2023-02-26T09:45:44.605Z,52.64
2023-02-26T09:46:43.319Z,52.56
2023-02-26T09:47:43.343Z,54.03
2023-02-26T09:48:43.288Z,54.79
2023-02-26T09:49:43.255Z,55.22
2023-02-26T09:50:43.258Z,56.70
2023-02-26T09:51:43.227Z,57.01
2023-02-26T09:52:43.211Z,56.52
2023-02-26T09:53:43.216Z,56.96
2023-02-26T09:54:43.191Z,56.86
2023-02-26T09:55:43.182Z,58.23
2023-02-26T09:56:43.186Z,58.65
2023-02-26T09:57:43.164Z,58.44
2023-02-26T09:58:43.181Z,59.50
2023-02-26T09:59:43.187Z,59.58
2023-02-26T10:00:43.216Z,59.69
2023-02-26T10:01:43.199Z,58.98
2023-02-26T10:02:43.125Z,58.34
2023-02-26T10:03:43.295Z,58.65
2023-02-26T10:04:43.925Z,59.69
2023-02-26T10:05:43.206Z,58.75
2023-02-26T10:06:43.870Z,59.06
2023-02-26T10:07:43.157Z,58.52
2023-02-26T10:08:43.185Z,58.31
2023-02-26T10:09:43.057Z,58.39
2023-02-26T10:10:43.051Z,57.12
2023-02-26T10:11:43.068Z,57.64
2023-02-26T10:12:43.071Z,57.40
2023-02-26T10:13:56.485Z,56.78
2023-02-26T10:14:43.133Z,55.33
2023-02-26T10:15:43.030Z,55.85
2023-02-26T10:16:43.066Z,54.81
2023-02-26T10:17:43.594Z,56.60
2023-02-26T10:18:44.008Z,56.91
2023-02-26T10:19:43.449Z,54.58
2023-02-26T10:20:42.973Z,55.25
2023-02-26T10:21:42.979Z,53.05
2023-02-26T10:22:42.923Z,53.88
2023-02-26T10:23:44.004Z,53.91
2023-02-26T10:24:42.872Z,53.57
2023-02-26T10:25:42.900Z,52.98
2023-02-26T10:26:42.864Z,53.41
2023-02-26T10:27:42.849Z,53.83
2023-02-26T10:28:42.841Z,54.58
2023-02-26T10:29:42.858Z,55.95
2023-02-26T10:30:42.836Z,55.15
2023-02-26T10:31:42.859Z,57.22
2023-02-26T10:32:42.934Z,56.29
2023-02-26T10:33:42.779Z,55.25
2023-02-26T10:34:42.792Z,55.98
2023-02-26T10:35:42.755Z,55.25
2023-02-26T10:36:42.746Z,55.27
2023-02-26T10:37:42.750Z,56.00
2023-02-26T10:38:42.735Z,56.62
2023-02-26T10:39:42.740Z,54.96
2023-02-26T10:40:42.725Z,55.79
2023-02-26T10:41:42.752Z,55.64
2023-02-26T10:42:42.707Z,53.88
2023-02-26T10:43:42.666Z,53.33
2023-02-26T10:44:42.664Z,53.96
2023-02-26T10:45:42.698Z,53.31
2023-02-26T10:46:42.695Z,52.87
2023-02-26T10:47:44.593Z,53.39
2023-02-26T10:48:42.607Z,52.46
2023-02-26T10:49:42.665Z,52.69
2023-02-26T10:50:42.670Z,53.12
2023-02-26T10:51:42.578Z,53.88
2023-02-26T10:52:42.589Z,53.62
2023-02-26T10:53:42.586Z,52.93
2023-02-26T10:54:42.603Z,51.61
2023-02-26T10:55:42.712Z,52.72
2023-02-26T10:56:43.740Z,50.81
2023-02-26T10:57:43.678Z,50.25
2023-02-26T10:58:42.513Z,48.93
2023-02-26T10:59:42.529Z,49.37
2023-02-26T11:00:42.531Z,50.73
2023-02-26T11:01:42.558Z,50.42
2023-02-26T11:02:43.234Z,49.93
2023-02-26T11:03:42.748Z,50.99
2023-02-26T11:04:42.460Z,51.19
2023-02-26T11:05:42.464Z,52.15
2023-02-26T11:06:42.457Z,52.87
2023-02-26T11:07:42.472Z,51.65
2023-02-26T11:08:42.438Z,52.92
2023-02-26T11:09:42.520Z,53.33
2023-02-26T11:10:42.431Z,52.33
2023-02-26T11:11:42.396Z,53.88
2023-02-26T11:12:42.375Z,53.49
2023-02-26T11:13:42.715Z,54.42
2023-02-26T11:14:42.399Z,54.32
2023-02-26T11:15:42.680Z,53.61
2023-02-26T11:16:42.333Z,54.75
2023-02-26T11:17:43.559Z,55.07
2023-02-26T11:18:42.345Z,54.86
2023-02-26T11:19:42.430Z,55.48
2023-02-26T11:20:42.298Z,55.48
2023-02-26T11:21:42.275Z,54.55
2023-02-26T11:22:42.497Z,53.72
2023-02-26T11:23:42.348Z,54.03
2023-02-26T11:24:42.273Z,54.03
2023-02-26T11:25:42.368Z,55.04
2023-02-26T11:26:42.227Z,54.65
2023-02-26T11:27:42.334Z,54.65
2023-02-26T11:28:42.301Z,54.86
2023-02-26T11:29:42.205Z,54.65
2023-02-26T11:30:42.248Z,54.03
2023-02-26T11:31:42.394Z,55.27
2023-02-26T11:32:42.210Z,54.24
2023-02-26T11:33:42.129Z,54.00
2023-02-26T11:34:42.150Z,54.83
2023-02-26T11:35:42.227Z,54.21
2023-02-26T11:36:42.521Z,53.90
2023-02-26T11:37:42.110Z,53.05
2023-02-26T11:38:42.164Z,52.95
2023-02-26T11:39:42.079Z,54.37
2023-02-26T11:40:42.130Z,52.51
2023-02-26T11:41:42.118Z,51.99
2023-02-26T11:42:42.056Z,51.61
2023-02-26T11:43:44.427Z,50.45
2023-02-26T11:44:42.049Z,51.07
2023-02-26T11:45:42.052Z,50.34
2023-02-26T11:46:42.025Z,51.68
2023-02-26T11:47:42.018Z,52.20
2023-02-26T11:48:42.050Z,49.88
2023-02-26T11:49:42.056Z,50.04
2023-02-26T11:50:43.350Z,49.65
2023-02-26T11:51:42.514Z,49.96
2023-02-26T11:52:41.964Z,50.17
2023-02-26T11:53:42.001Z,48.83
2023-02-26T11:54:41.997Z,49.78
2023-02-26T11:55:41.928Z,50.84
2023-02-26T11:56:42.771Z,51.15
2023-02-26T11:57:41.870Z,50.84
2023-02-26T11:58:41.876Z,50.96
2023-02-26T11:59:41.875Z,49.93
2023-02-26T12:00:41.854Z,51.29
2023-02-26T12:01:41.888Z,52.02
2023-02-26T12:02:41.895Z,50.39
2023-02-26T12:03:41.872Z,49.98
2023-02-26T12:04:41.830Z,49.77
2023-02-26T12:05:41.782Z,50.62
2023-02-26T12:06:41.798Z,50.51
2023-02-26T12:07:41.829Z,50.95
2023-02-26T12:08:41.741Z,51.47
2023-02-26T12:09:41.773Z,51.16
2023-02-26T12:10:41.786Z,51.91
2023-02-26T12:11:41.744Z,51.91
2023-02-26T12:12:41.746Z,50.87
2023-02-26T12:13:41.741Z,52.87
2023-02-26T12:14:41.692Z,52.25
2023-02-26T12:15:41.730Z,52.58
2023-02-26T12:16:41.692Z,54.13
2023-02-26T12:17:41.689Z,54.03
2023-02-26T12:18:41.648Z,53.30
2023-02-26T12:19:41.656Z,53.30
2023-02-26T12:20:41.744Z,52.69
2023-02-26T12:21:41.633Z,53.61
2023-02-26T12:22:41.618Z,52.37
2023-02-26T12:23:41.648Z,52.79
2023-02-26T12:24:41.623Z,52.89
2023-02-26T12:25:41.583Z,51.86
2023-02-26T12:26:41.603Z,54.24
2023-02-26T12:27:41.595Z,53.23
2023-02-26T12:28:41.613Z,52.92
2023-02-26T12:29:41.571Z,53.54
2023-02-26T12:30:41.621Z,53.98
2023-02-26T12:31:41.651Z,53.67
2023-02-26T12:32:41.554Z,53.67
2023-02-26T12:33:41.519Z,53.67
2023-02-26T12:34:41.537Z,52.96
2023-02-26T12:35:41.645Z,53.17
2023-02-26T12:36:49.113Z,53.38
2023-02-26T12:37:41.465Z,53.69
2023-02-26T12:38:41.533Z,55.04
2023-02-26T12:39:41.452Z,53.80
2023-02-26T12:40:41.523Z,54.11
2023-02-26T12:41:41.463Z,54.73
2023-02-26T12:42:41.469Z,54.63
2023-02-26T12:43:41.450Z,54.50
2023-02-26T12:44:41.433Z,54.29
2023-02-26T12:45:41.357Z,54.39
2023-02-26T12:46:41.488Z,55.33
2023-02-26T12:47:41.475Z,55.64
2023-02-26T12:48:41.435Z,54.71
2023-02-26T12:49:41.470Z,54.81
2023-02-26T12:50:41.660Z,53.25
2023-02-26T12:51:41.357Z,53.98
2023-02-26T12:52:41.317Z,54.94